OIII/THR METAR and TAF weather

Enter ICAO airport designator
Station Type Date Time Source
OIII METAR 2019/12/14 11:00 UTC NOAA

OIII 141100Z 21004KT 3000 HZ NSC 11/02 Q1021 A3015 NOSIG


Station Type Date Time Source
OIII Decoded METAR 2019/12/14 11:00 UTC NOAA

Tehran-Mehrabad, Iran (OIII) 35-41N 051-21E 1191M
Dec 14, 2019 - 06:00 AM EST / 2019.12.14 1100 UTC
Wind: from the SSW (210 degrees) at 5 MPH (4 KT):0
Visibility: 1 mile(s):0
Weather: haze
Temperature: 51 F (11 C)
Dew Point: 35 F (2 C)
Relative Humidity: 53%
Pressure (altimeter): 30.15 in. Hg (1020 hPa)
ob: OIII 141100Z 21004KT 3000 HZ NSC 11/02 Q1021 A3015 NOSIG
cycle: 11

Station Type Date Time Source
OIII TAF 2019/12/14 06:54 UTC NOAA

TAF OIII 140545Z 1406/1512 24006KT 3000 HZ NSC
BECMG 1408/1409 5000 HZ
BECMG 1418/1420 3000 HZ
BECMG 1500/1501 2000 BR
BECMG 1503/1505 3000 HZ

Example: see airport list